createdAt,value
2022-08-23T17:44:42.423Z,98392.52
2022-08-23T17:47:20.068Z,98396.28
2022-08-23T17:51:41.231Z,98401.58
2022-08-23T17:59:03.930Z,98394.79
2022-08-23T18:11:48.151Z,98409.13
2022-08-23T18:14:47.416Z,98408.44
2022-08-23T18:17:20.621Z,98410.33
2022-08-23T18:19:53.327Z,98415.74
2022-08-23T18:22:28.943Z,98409.67
2022-08-23T18:29:33.644Z,98417.12
2022-08-23T18:32:57.759Z,98417.98
2022-08-23T18:37:23.409Z,98428.42
2022-08-23T18:40:46.351Z,98435.70
2022-08-23T18:57:56.355Z,98462.01
2022-08-23T19:00:36.117Z,98462.75
2022-08-23T19:03:11.044Z,98466.86
2022-08-23T19:11:06.243Z,98465.23
2022-08-23T19:15:16.820Z,98466.23
2022-08-23T19:22:39.970Z,98490.02
2022-08-23T19:25:20.779Z,98490.39
2022-08-23T19:33:14.404Z,98481.23
2022-08-23T19:35:47.407Z,98472.34
2022-08-23T19:39:25.540Z,98472.44
2022-08-23T19:46:32.909Z,98498.28
2022-08-23T19:52:05.542Z,98496.43
2022-08-23T20:05:00.942Z,98494.71
2022-08-23T20:12:23.000Z,98497.85
2022-08-23T20:14:55.817Z,98498.70
2022-08-23T20:17:35.047Z,98503.05
2022-08-23T20:20:10.010Z,98503.52
2022-08-23T20:35:41.935Z,98521.91
2022-08-23T20:38:24.531Z,98524.19
2022-08-23T20:41:25.023Z,98525.89
2022-08-23T20:44:50.921Z,98521.58
2022-08-23T20:47:43.166Z,98520.25
2022-08-23T20:55:10.590Z,98522.92
2022-08-23T20:57:43.530Z,98519.45
2022-08-23T21:00:19.731Z,98515.48
2022-08-23T21:02:51.906Z,98513.60
2022-08-23T21:05:24.128Z,98510.21
2022-08-23T21:07:57.772Z,98510.75
2022-08-23T21:10:32.809Z,98516.82
2022-08-23T21:13:10.442Z,98512.73
2022-08-23T21:15:43.431Z,98504.58
2022-08-23T21:18:15.592Z,98503.20
2022-08-23T21:20:48.348Z,98499.06
2022-08-23T21:23:20.982Z,98504.54
2022-08-23T21:25:58.876Z,98502.21
2022-08-23T21:28:31.325Z,98501.88
2022-08-23T21:31:10.331Z,98501.48
2022-08-23T21:33:43.277Z,98501.66
2022-08-23T21:36:17.995Z,98497.93
2022-08-23T21:38:51.290Z,98500.58
2022-08-23T21:41:35.293Z,98501.04
2022-08-23T21:44:11.155Z,98502.33
2022-08-23T21:46:45.271Z,98505.31
2022-08-23T21:49:23.181Z,98509.28
2022-08-23T21:51:55.679Z,98505.66
2022-08-23T21:54:28.270Z,98501.63
2022-08-23T21:57:00.432Z,98502.88
2022-08-23T21:59:32.809Z,98501.63
2022-08-23T22:02:05.278Z,98504.48
2022-08-23T22:04:38.187Z,98499.30
2022-08-23T22:07:11.100Z,98506.04
2022-08-23T22:09:43.102Z,98504.52
2022-08-23T22:12:15.830Z,98498.40
2022-08-23T22:14:48.422Z,98498.30
2022-08-23T22:17:20.752Z,98498.32
2022-08-23T22:19:52.960Z,98498.63
2022-08-23T22:22:26.507Z,98494.77
2022-08-23T22:24:58.654Z,98493.18
2022-08-23T22:27:32.788Z,98486.33
2022-08-23T22:30:08.705Z,98483.59
2022-08-23T22:32:41.106Z,98484.48
2022-08-23T22:35:14.444Z,98486.36
2022-08-23T22:38:10.225Z,98481.92
2022-08-23T22:40:40.413Z,98481.67
2022-08-23T22:43:12.631Z,98486.23
2022-08-23T22:45:53.216Z,98489.54
2022-08-23T22:48:26.155Z,98491.94
2022-08-23T22:51:09.116Z,98490.13
2022-08-23T22:53:44.512Z,98489.88
2022-08-23T22:56:20.093Z,98491.50
2022-08-23T22:58:55.571Z,98492.36
2022-08-23T23:01:31.672Z,98490.29
2022-08-23T23:04:08.152Z,98483.39
2022-08-23T23:06:40.661Z,98488.66
2022-08-23T23:09:15.619Z,98489.21
2022-08-23T23:11:48.681Z,98492.36
2022-08-23T23:14:22.592Z,98499.88
2022-08-23T23:16:55.449Z,98502.28
2022-08-23T23:19:57.272Z,98495.71
2022-08-23T23:22:29.687Z,98496.91
2022-08-23T23:25:03.808Z,98501.51
2022-08-23T23:27:35.924Z,98505.19
2022-08-23T23:30:10.199Z,98503.71
2022-08-23T23:32:43.233Z,98506.23
2022-08-23T23:35:15.733Z,98506.94
2022-08-23T23:37:52.804Z,98510.58
2022-08-23T23:40:26.151Z,98513.98
2022-08-23T23:42:58.399Z,98518.61
2022-08-23T23:45:30.906Z,98514.88
2022-08-23T23:48:03.229Z,98517.19
2022-08-23T23:50:45.572Z,98513.63
2022-08-23T23:53:20.313Z,98513.25
2022-08-23T23:56:02.160Z,98512.38
2022-08-23T23:58:34.943Z,98512.00
